sensor_id;sensor_type;location;lat;lon;timestamp;pressure;altitude;pressure_sealevel;temperature;humidity
13765;BME280;6953;48.810;9.204;2023-05-23T00:00:05;98495.09;;;19.38;100.00
13765;BME280;6953;48.810;9.204;2023-05-23T00:02:30;98512.03;;;19.56;100.00
13765;BME280;6953;48.810;9.204;2023-05-23T00:04:56;98257.94;;;18.10;100.00
13765;BME280;6953;48.810;9.204;2023-05-23T00:07:22;98529.97;;;19.54;100.00
13765;BME280;6953;48.810;9.204;2023-05-23T00:09:48;98267.00;;;18.08;100.00
13765;BME280;6953;48.810;9.204;2023-05-23T00:12:13;98171.50;;;17.50;100.00
13765;BME280;6953;48.810;9.204;2023-05-23T00:14:38;98511.22;;;19.46;100.00
13765;BME280;6953;48.810;9.204;2023-05-23T00:17:04;98351.53;;;18.52;100.00
13765;BME280;6953;48.810;9.204;2023-05-23T00:19:29;98507.84;;;19.44;100.00
13765;BME280;6953;48.810;9.204;2023-05-23T00:21:55;98447.16;;;19.00;100.00
13765;BME280;6953;48.810;9.204;2023-05-23T00:24:21;98483.22;;;19.23;100.00
13765;BME280;6953;48.810;9.204;2023-05-23T00:26:46;98256.50;;;17.87;100.00
13765;BME280;6953;48.810;9.204;2023-05-23T00:29:12;98456.56;;;19.04;100.00
13765;BME280;6953;48.810;9.204;2023-05-23T00:31:44;98528.28;;;19.34;100.00
13765;BME280;6953;48.810;9.204;2023-05-23T00:34:11;98508.69;;;19.35;100.00
13765;BME280;6953;48.810;9.204;2023-05-23T00:36:37;98515.13;;;19.33;100.00
13765;BME280;6953;48.810;9.204;2023-05-23T00:39:03;98519.88;;;19.29;100.00
13765;BME280;6953;48.810;9.204;2023-05-23T00:41:29;98522.41;;;19.31;100.00
13765;BME280;6953;48.810;9.204;2023-05-23T00:43:56;98520.84;;;19.28;100.00
13765;BME280;6953;48.810;9.204;2023-05-23T00:46:24;98520.44;;;19.23;100.00
13765;BME280;6953;48.810;9.204;2023-05-23T00:48:50;98267.19;;;17.67;100.00
13765;BME280;6953;48.810;9.204;2023-05-23T00:51:15;98433.25;;;18.59;100.00
13765;BME280;6953;48.810;9.204;2023-05-23T00:53:41;98300.34;;;17.82;100.00
13765;BME280;6953;48.810;9.204;2023-05-23T00:56:07;98282.84;;;17.70;100.00
13765;BME280;6953;48.810;9.204;2023-05-23T00:58:33;98532.06;;;19.13;100.00
13765;BME280;6953;48.810;9.204;2023-05-23T01:00:58;98374.53;;;18.13;100.00
13765;BME280;6953;48.810;9.204;2023-05-23T01:03:24;98462.66;;;18.67;100.00
13765;BME280;6953;48.810;9.204;2023-05-23T01:05:53;98539.06;;;19.14;100.00
13765;BME280;6953;48.810;9.204;2023-05-23T01:08:18;98542.69;;;19.13;100.00
13765;BME280;6953;48.810;9.204;2023-05-23T01:10:44;98540.03;;;19.13;100.00
13765;BME280;6953;48.810;9.204;2023-05-23T01:15:57;98536.25;;;19.15;100.00
13765;BME280;6953;48.810;9.204;2023-05-23T01:18:42;98498.94;;;18.87;100.00
13765;BME280;6953;48.810;9.204;2023-05-23T01:21:13;98521.63;;;19.00;100.00
13765;BME280;6953;48.810;9.204;2023-05-23T01:27:04;98491.22;;;18.84;100.00
13765;BME280;6953;48.810;9.204;2023-05-23T01:29:35;98533.13;;;19.10;100.00
13765;BME280;6953;48.810;9.204;2023-05-23T01:32:06;98555.38;;;19.09;100.00
13765;BME280;6953;48.810;9.204;2023-05-23T01:34:34;98519.69;;;19.02;100.00
13765;BME280;6953;48.810;9.204;2023-05-23T01:36:59;98533.69;;;19.04;100.00
13765;BME280;6953;48.810;9.204;2023-05-23T01:39:25;98536.91;;;19.08;100.00
13765;BME280;6953;48.810;9.204;2023-05-23T01:41:51;98529.47;;;19.11;100.00
13765;BME280;6953;48.810;9.204;2023-05-23T01:44:17;98508.34;;;19.00;100.00
13765;BME280;6953;48.810;9.204;2023-05-23T01:46:43;98418.25;;;18.49;100.00
13765;BME280;6953;48.810;9.204;2023-05-23T01:49:11;98521.16;;;19.16;100.00
13765;BME280;6953;48.810;9.204;2023-05-23T01:51:38;98434.47;;;18.55;100.00
13765;BME280;6953;48.810;9.204;2023-05-23T01:54:04;98579.94;;;19.22;100.00
13765;BME280;6953;48.810;9.204;2023-05-23T01:56:30;98582.63;;;19.22;100.00
13765;BME280;6953;48.810;9.204;2023-05-23T01:58:55;98573.66;;;19.23;100.00
13765;BME280;6953;48.810;9.204;2023-05-23T02:01:21;98335.03;;;17.99;100.00
13765;BME280;6953;48.810;9.204;2023-05-23T02:03:47;98492.91;;;18.94;100.00
13765;BME280;6953;48.810;9.204;2023-05-23T02:06:13;98547.88;;;19.24;100.00
13765;BME280;6953;48.810;9.204;2023-05-23T02:08:38;98288.72;;;17.73;100.00
13765;BME280;6953;48.810;9.204;2023-05-23T02:11:03;98541.16;;;19.20;100.00
13765;BME280;6953;48.810;9.204;2023-05-23T02:13:29;98531.31;;;19.11;100.00
13765;BME280;6953;48.810;9.204;2023-05-23T02:15:55;98291.22;;;17.66;100.00
13765;BME280;6953;48.810;9.204;2023-05-23T02:18:20;98550.06;;;19.09;100.00
13765;BME280;6953;48.810;9.204;2023-05-23T02:20:45;98561.09;;;19.05;100.00
13765;BME280;6953;48.810;9.204;2023-05-23T02:23:11;98537.97;;;18.96;100.00
13765;BME280;6953;48.810;9.204;2023-05-23T02:25:36;98259.38;;;17.36;100.00
13765;BME280;6953;48.810;9.204;2023-05-23T02:28:01;98309.22;;;17.62;100.00
13765;BME280;6953;48.810;9.204;2023-05-23T02:30:30;98545.34;;;19.13;100.00
13765;BME280;6953;48.810;9.204;2023-05-23T02:32:55;98539.75;;;19.16;100.00
13765;BME280;6953;48.810;9.204;2023-05-23T02:35:22;98573.75;;;19.12;100.00
13765;BME280;6953;48.810;9.204;2023-05-23T02:37:47;98549.41;;;19.26;100.00
13765;BME280;6953;48.810;9.204;2023-05-23T02:40:12;98509.03;;;19.02;100.00
13765;BME280;6953;48.810;9.204;2023-05-23T02:42:38;98336.91;;;18.08;100.00
13765;BME280;6953;48.810;9.204;2023-05-23T02:45:03;98530.78;;;19.26;100.00
13765;BME280;6953;48.810;9.204;2023-05-23T02:47:29;98559.13;;;19.46;100.00
13765;BME280;6953;48.810;9.204;2023-05-23T02:49:54;98424.31;;;18.70;100.00
13765;BME280;6953;48.810;9.204;2023-05-23T02:52:19;98564.03;;;19.51;100.00
13765;BME280;6953;48.810;9.204;2023-05-23T02:54:45;98503.63;;;19.23;100.00
13765;BME280;6953;48.810;9.204;2023-05-23T02:57:11;98570.34;;;19.59;100.00
13765;BME280;6953;48.810;9.204;2023-05-23T02:59:36;98341.59;;;18.25;100.00
13765;BME280;6953;48.810;9.204;2023-05-23T03:02:01;98596.09;;;19.59;100.00
13765;BME280;6953;48.810;9.204;2023-05-23T03:04:27;98576.22;;;19.63;100.00
13765;BME280;6953;48.810;9.204;2023-05-23T03:06:53;98530.53;;;19.39;100.00
13765;BME280;6953;48.810;9.204;2023-05-23T03:09:19;98475.22;;;19.14;100.00
13765;BME280;6953;48.810;9.204;2023-05-23T03:11:45;98578.59;;;19.75;100.00
13765;BME280;6953;48.810;9.204;2023-05-23T03:14:10;98580.81;;;19.80;100.00
13765;BME280;6953;48.810;9.204;2023-05-23T03:16:36;98561.22;;;19.71;100.00
13765;BME280;6953;48.810;9.204;2023-05-23T03:19:01;98335.59;;;18.42;100.00
13765;BME280;6953;48.810;9.204;2023-05-23T03:21:26;98578.31;;;19.88;100.00
13765;BME280;6953;48.810;9.204;2023-05-23T03:23:52;98522.84;;;19.55;100.00
13765;BME280;6953;48.810;9.204;2023-05-23T03:26:17;98581.69;;;19.89;100.00
13765;BME280;6953;48.810;9.204;2023-05-23T03:28:43;98610.00;;;19.90;100.00
13765;BME280;6953;48.810;9.204;2023-05-23T03:31:08;98377.31;;;18.70;100.00
13765;BME280;6953;48.810;9.204;2023-05-23T03:33:33;98593.47;;;19.96;100.00
13765;BME280;6953;48.810;9.204;2023-05-23T03:35:59;98584.63;;;19.96;100.00
13765;BME280;6953;48.810;9.204;2023-05-23T03:38:26;98579.72;;;19.91;100.00
13765;BME280;6953;48.810;9.204;2023-05-23T03:40:51;98457.38;;;19.05;100.00
13765;BME280;6953;48.810;9.204;2023-05-23T03:43:17;98590.09;;;19.94;100.00
13765;BME280;6953;48.810;9.204;2023-05-23T03:45:42;98371.13;;;18.60;100.00
13765;BME280;6953;48.810;9.204;2023-05-23T03:48:07;98364.28;;;18.58;100.00
13765;BME280;6953;48.810;9.204;2023-05-23T03:50:33;98591.47;;;19.89;100.00
13765;BME280;6953;48.810;9.204;2023-05-23T03:52:58;98509.22;;;19.39;100.00
13765;BME280;6953;48.810;9.204;2023-05-23T03:55:23;98611.09;;;19.79;100.00
13765;BME280;6953;48.810;9.204;2023-05-23T03:57:52;98508.25;;;19.30;100.00
13765;BME280;6953;48.810;9.204;2023-05-23T04:00:17;98355.72;;;18.35;100.00
13765;BME280;6953;48.810;9.204;2023-05-23T04:02:44;98591.47;;;19.61;100.00
13765;BME280;6953;48.810;9.204;2023-05-23T04:05:10;98596.69;;;19.62;100.00
13765;BME280;6953;48.810;9.204;2023-05-23T04:07:36;98589.38;;;19.55;100.00
13765;BME280;6953;48.810;9.204;2023-05-23T04:10:02;98596.25;;;19.67;100.00
13765;BME280;6953;48.810;9.204;2023-05-23T04:12:28;98595.69;;;19.73;100.00
13765;BME280;6953;48.810;9.204;2023-05-23T04:14:54;98589.53;;;19.82;100.00
13765;BME280;6953;48.810;9.204;2023-05-23T04:17:20;98610.97;;;19.80;100.00
13765;BME280;6953;48.810;9.204;2023-05-23T04:19:46;98563.88;;;19.62;100.00
13765;BME280;6953;48.810;9.204;2023-05-23T04:22:12;98587.72;;;19.82;100.00
13765;BME280;6953;48.810;9.204;2023-05-23T04:24:37;98610.81;;;19.91;100.00
13765;BME280;6953;48.810;9.204;2023-05-23T04:27:03;98599.19;;;19.92;100.00
13765;BME280;6953;48.810;9.204;2023-05-23T04:29:28;98422.53;;;18.80;100.00
13765;BME280;6953;48.810;9.204;2023-05-23T04:31:56;98616.72;;;19.94;100.00
13765;BME280;6953;48.810;9.204;2023-05-23T04:34:21;98613.41;;;20.02;100.00
13765;BME280;6953;48.810;9.204;2023-05-23T04:36:47;98377.59;;;18.67;100.00
13765;BME280;6953;48.810;9.204;2023-05-23T04:39:13;98609.88;;;20.11;100.00
13765;BME280;6953;48.810;9.204;2023-05-23T04:41:40;98508.56;;;19.56;100.00
13765;BME280;6953;48.810;9.204;2023-05-23T04:44:05;98623.06;;;20.22;100.00
13765;BME280;6953;48.810;9.204;2023-05-23T04:46:31;98620.38;;;20.31;100.00
13765;BME280;6953;48.810;9.204;2023-05-23T04:48:56;98567.97;;;20.03;100.00
13765;BME280;6953;48.810;9.204;2023-05-23T04:51:23;98629.06;;;20.43;100.00
13765;BME280;6953;48.810;9.204;2023-05-23T04:53:49;98540.47;;;19.93;100.00
13765;BME280;6953;48.810;9.204;2023-05-23T04:56:15;98634.66;;;20.49;100.00
13765;BME280;6953;48.810;9.204;2023-05-23T04:58:45;98418.78;;;19.20;100.00
13765;BME280;6953;48.810;9.204;2023-05-23T05:01:11;98633.50;;;20.52;100.00
13765;BME280;6953;48.810;9.204;2023-05-23T05:03:38;98392.75;;;19.14;100.00
13765;BME280;6953;48.810;9.204;2023-05-23T05:06:03;98636.97;;;20.71;100.00
13765;BME280;6953;48.810;9.204;2023-05-23T05:08:30;98643.13;;;20.72;99.68
13765;BME280;6953;48.810;9.204;2023-05-23T05:10:55;98424.66;;;19.52;99.35
13765;BME280;6953;48.810;9.204;2023-05-23T05:13:20;98628.53;;;20.85;98.74
13765;BME280;6953;48.810;9.204;2023-05-23T05:15:46;98570.06;;;20.65;98.17
13765;BME280;6953;48.810;9.204;2023-05-23T05:18:12;98449.06;;;20.02;97.17
13765;BME280;6953;48.810;9.204;2023-05-23T05:20:37;98643.09;;;21.27;96.36
13765;BME280;6953;48.810;9.204;2023-05-23T05:23:03;98645.47;;;21.30;96.02
13765;BME280;6953;48.810;9.204;2023-05-23T05:25:28;98648.31;;;21.28;95.45
13765;BME280;6953;48.810;9.204;2023-05-23T05:27:57;98652.03;;;21.35;95.18
13765;BME280;6953;48.810;9.204;2023-05-23T05:30:22;98654.59;;;21.37;94.87
13765;BME280;6953;48.810;9.204;2023-05-23T05:32:48;98645.78;;;21.27;94.82
13765;BME280;6953;48.810;9.204;2023-05-23T05:35:14;98441.66;;;19.87;95.00
13765;BME280;6953;48.810;9.204;2023-05-23T05:37:39;98475.31;;;19.97;95.41
13765;BME280;6953;48.810;9.204;2023-05-23T05:40:05;98662.31;;;21.03;95.91
13765;BME280;6953;48.810;9.204;2023-05-23T05:42:32;98650.53;;;20.97;95.79
13765;BME280;6953;48.810;9.204;2023-05-23T05:44:57;98656.91;;;21.22;95.32
13765;BME280;6953;48.810;9.204;2023-05-23T05:47:23;98653.31;;;21.31;94.75
13765;BME280;6953;48.810;9.204;2023-05-23T05:49:48;98651.47;;;21.41;94.40
13765;BME280;6953;48.810;9.204;2023-05-23T05:52:13;98575.44;;;21.18;93.61
13765;BME280;6953;48.810;9.204;2023-05-23T05:54:39;98686.13;;;21.95;92.00
13765;BME280;6953;48.810;9.204;2023-05-23T05:57:04;98656.97;;;22.02;90.71
13765;BME280;6953;48.810;9.204;2023-05-23T05:59:29;98667.31;;;21.97;90.98
13765;BME280;6953;48.810;9.204;2023-05-23T06:01:55;98594.88;;;21.55;90.86
13765;BME280;6953;48.810;9.204;2023-05-23T06:04:20;98667.06;;;21.90;90.73
13765;BME280;6953;48.810;9.204;2023-05-23T06:06:46;98615.41;;;21.55;90.60
13765;BME280;6953;48.810;9.204;2023-05-23T06:09:11;98648.88;;;21.76;90.86
13765;BME280;6953;48.810;9.204;2023-05-23T06:11:36;98718.50;;;21.92;90.67
13765;BME280;6953;48.810;9.204;2023-05-23T06:14:08;98417.91;;;20.39;89.56
13765;BME280;6953;48.810;9.204;2023-05-23T06:16:34;98678.34;;;21.84;89.80
13765;BME280;6953;48.810;9.204;2023-05-23T06:18:59;98532.91;;;21.17;89.34
13765;BME280;6953;48.810;9.204;2023-05-23T06:21:25;98614.31;;;21.75;88.87
13765;BME280;6953;48.810;9.204;2023-05-23T06:23:50;98669.34;;;22.02;88.85
13765;BME280;6953;48.810;9.204;2023-05-23T06:26:16;98657.84;;;22.02;88.99
13765;BME280;6953;48.810;9.204;2023-05-23T06:28:41;98699.34;;;22.14;88.54
13765;BME280;6953;48.810;9.204;2023-05-23T06:31:07;98677.53;;;22.18;88.49
13765;BME280;6953;48.810;9.204;2023-05-23T06:33:34;98677.38;;;22.20;88.50
13765;BME280;6953;48.810;9.204;2023-05-23T06:35:59;98658.81;;;22.01;88.05
13765;BME280;6953;48.810;9.204;2023-05-23T06:38:28;98684.94;;;22.07;88.49
13765;BME280;6953;48.810;9.204;2023-05-23T06:40:54;98704.47;;;22.07;88.39
13765;BME280;6953;48.810;9.204;2023-05-23T06:43:19;98698.09;;;22.01;88.61
13765;BME280;6953;48.810;9.204;2023-05-23T06:45:45;98625.50;;;21.61;88.56
13765;BME280;6953;48.810;9.204;2023-05-23T06:48:11;98699.66;;;21.94;88.67
13765;BME280;6953;48.810;9.204;2023-05-23T06:50:37;98615.66;;;21.34;89.17
13765;BME280;6953;48.810;9.204;2023-05-23T06:53:02;98724.41;;;21.69;89.54
13765;BME280;6953;48.810;9.204;2023-05-23T06:55:31;98715.25;;;21.71;89.87
13765;BME280;6953;48.810;9.204;2023-05-23T06:57:58;98700.59;;;21.58;90.36
13765;BME280;6953;48.810;9.204;2023-05-23T07:00:24;98717.19;;;21.52;90.78
13765;BME280;6953;48.810;9.204;2023-05-23T07:02:49;98644.50;;;20.95;90.91
13765;BME280;6953;48.810;9.204;2023-05-23T07:05:15;98506.97;;;20.00;91.06
13765;BME280;6953;48.810;9.204;2023-05-23T07:07:41;98700.25;;;20.98;91.99
13765;BME280;6953;48.810;9.204;2023-05-23T07:10:07;98497.91;;;19.65;92.61
13765;BME280;6953;48.810;9.204;2023-05-23T07:12:33;98710.38;;;20.75;93.67
13765;BME280;6953;48.810;9.204;2023-05-23T07:14:58;98535.44;;;19.72;93.73
13765;BME280;6953;48.810;9.204;2023-05-23T07:17:23;98735.78;;;20.79;93.70
13765;BME280;6953;48.810;9.204;2023-05-23T07:19:49;98742.38;;;20.75;93.78
13765;BME280;6953;48.810;9.204;2023-05-23T07:22:15;98744.78;;;20.78;92.25
13765;BME280;6953;48.810;9.204;2023-05-23T07:24:40;98521.44;;;19.60;91.12
13765;BME280;6953;48.810;9.204;2023-05-23T07:27:05;98592.63;;;20.15;89.20
13765;BME280;6953;48.810;9.204;2023-05-23T07:29:31;98525.34;;;20.03;88.23
13765;BME280;6953;48.810;9.204;2023-05-23T07:31:57;98746.09;;;21.29;86.82
13765;BME280;6953;48.810;9.204;2023-05-23T07:34:23;98726.91;;;20.98;85.60
13765;BME280;6953;48.810;9.204;2023-05-23T07:36:48;98529.53;;;19.68;85.23
13765;BME280;6953;48.810;9.204;2023-05-23T07:39:14;98753.06;;;20.85;86.10
13765;BME280;6953;48.810;9.204;2023-05-23T07:41:39;98560.66;;;19.68;86.34
13765;BME280;6953;48.810;9.204;2023-05-23T07:44:06;98531.50;;;19.38;86.42
13765;BME280;6953;48.810;9.204;2023-05-23T07:46:31;98756.56;;;20.85;86.36
13765;BME280;6953;48.810;9.204;2023-05-23T07:48:56;98696.50;;;20.62;85.77
13765;BME280;6953;48.810;9.204;2023-05-23T07:51:22;98750.94;;;20.98;84.85
13765;BME280;6953;48.810;9.204;2023-05-23T07:53:47;98690.84;;;20.75;84.37
13765;BME280;6953;48.810;9.204;2023-05-23T07:56:12;98750.97;;;21.34;83.84
13765;BME280;6953;48.810;9.204;2023-05-23T07:58:38;98760.06;;;21.60;82.94
13765;BME280;6953;48.810;9.204;2023-05-23T08:01:03;98766.31;;;21.95;81.74
13765;BME280;6953;48.810;9.204;2023-05-23T08:03:29;98787.84;;;22.20;79.49
13765;BME280;6953;48.810;9.204;2023-05-23T08:05:55;98593.72;;;21.40;78.99
13765;BME280;6953;48.810;9.204;2023-05-23T08:08:20;98532.41;;;21.04;77.21
13765;BME280;6953;48.810;9.204;2023-05-23T08:10:45;98745.38;;;22.17;77.12
13765;BME280;6953;48.810;9.204;2023-05-23T08:13:11;98761.16;;;22.28;76.72
13765;BME280;6953;48.810;9.204;2023-05-23T08:15:37;98768.88;;;22.31;75.90
13765;BME280;6953;48.810;9.204;2023-05-23T08:18:03;98766.13;;;22.23;75.10
13765;BME280;6953;48.810;9.204;2023-05-23T08:20:28;98714.84;;;21.39;76.63
13765;BME280;6953;48.810;9.204;2023-05-23T08:23:00;98748.53;;;21.50;77.13
13765;BME280;6953;48.810;9.204;2023-05-23T08:25:26;98769.38;;;21.37;77.45
13765;BME280;6953;48.810;9.204;2023-05-23T08:27:59;98785.56;;;21.72;77.10
13765;BME280;6953;48.810;9.204;2023-05-23T08:30:26;98731.81;;;21.48;77.05
13765;BME280;6953;48.810;9.204;2023-05-23T08:32:52;98620.00;;;20.82;76.30
13765;BME280;6953;48.810;9.204;2023-05-23T08:35:18;98792.84;;;21.79;75.91
13765;BME280;6953;48.810;9.204;2023-05-23T08:37:43;98783.88;;;21.71;75.79
13765;BME280;6953;48.810;9.204;2023-05-23T08:40:14;98790.94;;;21.62;76.37
13765;BME280;6953;48.810;9.204;2023-05-23T08:42:42;98782.91;;;21.72;75.78
13765;BME280;6953;48.810;9.204;2023-05-23T08:45:08;98774.56;;;22.02;74.58
13765;BME280;6953;48.810;9.204;2023-05-23T08:47:35;98793.00;;;22.49;73.07
13765;BME280;6953;48.810;9.204;2023-05-23T08:50:04;98787.19;;;22.53;71.75
13765;BME280;6953;48.810;9.204;2023-05-23T08:52:32;98775.91;;;22.32;71.41
13765;BME280;6953;48.810;9.204;2023-05-23T08:54:59;98809.22;;;22.82;70.49
13765;BME280;6953;48.810;9.204;2023-05-23T08:57:25;98811.72;;;22.66;70.60
13765;BME280;6953;48.810;9.204;2023-05-23T08:59:51;98758.84;;;22.16;70.77
13765;BME280;6953;48.810;9.204;2023-05-23T09:02:16;98829.28;;;22.34;71.02
13765;BME280;6953;48.810;9.204;2023-05-23T09:04:42;98825.66;;;21.99;72.06
13765;BME280;6953;48.810;9.204;2023-05-23T09:07:08;98606.91;;;20.79;71.98
13765;BME280;6953;48.810;9.204;2023-05-23T09:09:34;98814.56;;;22.20;71.61
13765;BME280;6953;48.810;9.204;2023-05-23T09:11:59;98822.66;;;22.55;70.04
13765;BME280;6953;48.810;9.204;2023-05-23T09:14:27;98811.28;;;22.71;68.70
13765;BME280;6953;48.810;9.204;2023-05-23T09:17:05;98817.38;;;22.98;67.85
13765;BME280;6953;48.810;9.204;2023-05-23T09:19:30;98803.47;;;23.12;66.59
13765;BME280;6953;48.810;9.204;2023-05-23T09:21:55;98834.44;;;22.97;67.22
13765;BME280;6953;48.810;9.204;2023-05-23T09:24:21;98867.53;;;22.61;68.45
13765;BME280;6953;48.810;9.204;2023-05-23T09:26:46;98625.28;;;20.91;70.16
13765;BME280;6953;48.810;9.204;2023-05-23T09:29:19;98834.50;;;21.99;71.37
13765;BME280;6953;48.810;9.204;2023-05-23T09:31:45;98853.75;;;22.02;71.55
13765;BME280;6953;48.810;9.204;2023-05-23T09:34:10;98838.53;;;22.39;69.99
13765;BME280;6953;48.810;9.204;2023-05-23T09:36:39;98839.31;;;22.49;69.46
13765;BME280;6953;48.810;9.204;2023-05-23T09:39:05;98827.88;;;22.74;68.65
13765;BME280;6953;48.810;9.204;2023-05-23T09:41:32;98775.09;;;22.84;67.46
13765;BME280;6953;48.810;9.204;2023-05-23T09:44:04;98834.28;;;23.16;66.33
13765;BME280;6953;48.810;9.204;2023-05-23T09:46:34;98832.88;;;22.95;66.22
13765;BME280;6953;48.810;9.204;2023-05-23T09:49:01;98753.41;;;22.35;66.48
13765;BME280;6953;48.810;9.204;2023-05-23T09:51:28;98831.13;;;22.68;66.92
13765;BME280;6953;48.810;9.204;2023-05-23T09:53:53;98839.69;;;22.54;67.10
13765;BME280;6953;48.810;9.204;2023-05-23T09:56:19;98644.47;;;21.04;67.98
13765;BME280;6953;48.810;9.204;2023-05-23T09:58:48;98819.75;;;21.95;69.25
13765;BME280;6953;48.810;9.204;2023-05-23T10:01:14;98615.06;;;20.87;69.18
13765;BME280;6953;48.810;9.204;2023-05-23T10:03:44;98860.38;;;22.35;68.28
13765;BME280;6953;48.810;9.204;2023-05-23T10:06:17;98837.78;;;22.47;67.54
13765;BME280;6953;48.810;9.204;2023-05-23T10:08:51;98796.38;;;22.24;67.90
13765;BME280;6953;48.810;9.204;2023-05-23T10:14:01;98837.09;;;23.14;65.22
13765;BME280;6953;48.810;9.204;2023-05-23T10:17:06;98837.34;;;23.72;63.27
13765;BME280;6953;48.810;9.204;2023-05-23T10:19:44;98783.91;;;24.04;61.10
13765;BME280;6953;48.810;9.204;2023-05-23T10:22:13;98838.09;;;24.64;59.67
13765;BME280;6953;48.810;9.204;2023-05-23T10:24:40;98839.34;;;25.26;58.04
13765;BME280;6953;48.810;9.204;2023-05-23T10:27:06;98813.81;;;25.22;55.75
13765;BME280;6953;48.810;9.204;2023-05-23T10:29:32;98840.50;;;25.31;55.92
13765;BME280;6953;48.810;9.204;2023-05-23T10:32:01;98799.91;;;25.26;56.27
13765;BME280;6953;48.810;9.204;2023-05-23T10:34:41;98795.13;;;25.68;55.30
13765;BME280;6953;48.810;9.204;2023-05-23T10:37:11;98820.59;;;26.34;52.68
13765;BME280;6953;48.810;9.204;2023-05-23T10:42:30;98809.53;;;26.59;51.16
13765;BME280;6953;48.810;9.204;2023-05-23T10:47:40;98693.69;;;26.23;49.00
13765;BME280;6953;48.810;9.204;2023-05-23T10:50:06;98828.47;;;26.96;48.58
13765;BME280;6953;48.810;9.204;2023-05-23T10:52:38;98836.47;;;26.82;49.47
13765;BME280;6953;48.810;9.204;2023-05-23T10:55:12;98775.34;;;26.30;50.43
13765;BME280;6953;48.810;9.204;2023-05-23T10:57:38;98637.88;;;25.18;49.41
13765;BME280;6953;48.810;9.204;2023-05-23T11:00:11;98650.53;;;25.47;49.29
13765;BME280;6953;48.810;9.204;2023-05-23T11:02:37;98820.00;;;26.54;48.30
13765;BME280;6953;48.810;9.204;2023-05-23T11:08:06;98848.47;;;26.71;47.64
13765;BME280;6953;48.810;9.204;2023-05-23T11:10:50;98867.28;;;26.41;47.46
13765;BME280;6953;48.810;9.204;2023-05-23T11:13:16;98847.00;;;26.31;47.67
13765;BME280;6953;48.810;9.204;2023-05-23T11:15:41;98875.56;;;26.47;47.00
13765;BME280;6953;48.810;9.204;2023-05-23T11:18:09;98850.13;;;26.80;46.22
13765;BME280;6953;48.810;9.204;2023-05-23T11:20:36;98765.38;;;26.46;45.42
13765;BME280;6953;48.810;9.204;2023-05-23T11:23:06;98846.34;;;27.34;44.22
13765;BME280;6953;48.810;9.204;2023-05-23T11:25:48;98749.34;;;26.75;42.21
13765;BME280;6953;48.810;9.204;2023-05-23T11:28:13;98653.13;;;26.24;42.77
13765;BME280;6953;48.810;9.204;2023-05-23T11:30:39;98871.03;;;27.46;42.41
13765;BME280;6953;48.810;9.204;2023-05-23T11:33:07;98799.66;;;28.14;40.71
13765;BME280;6953;48.810;9.204;2023-05-23T11:35:34;98872.97;;;28.89;39.84
13765;BME280;6953;48.810;9.204;2023-05-23T11:38:02;98830.41;;;28.27;41.22
13765;BME280;6953;48.810;9.204;2023-05-23T11:40:33;98853.72;;;27.40;44.56
13765;BME280;6953;48.810;9.204;2023-05-23T11:43:02;98842.34;;;26.85;46.99
13765;BME280;6953;48.810;9.204;2023-05-23T11:45:30;98851.34;;;26.78;47.16
13765;BME280;6953;48.810;9.204;2023-05-23T11:48:04;98850.28;;;27.09;46.43
13765;BME280;6953;48.810;9.204;2023-05-23T11:50:29;98835.97;;;27.46;44.87
13765;BME280;6953;48.810;9.204;2023-05-23T11:52:55;98836.72;;;27.54;44.82
13765;BME280;6953;48.810;9.204;2023-05-23T11:55:22;98819.97;;;27.95;43.40
13765;BME280;6953;48.810;9.204;2023-05-23T11:57:48;98663.88;;;27.06;42.35
13765;BME280;6953;48.810;9.204;2023-05-23T12:00:14;98855.53;;;28.42;41.65
13765;BME280;6953;48.810;9.204;2023-05-23T12:02:41;98882.09;;;29.45;38.03
13765;BME280;6953;48.810;9.204;2023-05-23T12:05:11;98671.97;;;28.69;36.70
13765;BME280;6953;48.810;9.204;2023-05-23T12:07:45;98660.63;;;30.29;32.68
13765;BME280;6953;48.810;9.204;2023-05-23T12:10:11;98852.69;;;31.95;31.71
13765;BME280;6953;48.810;9.204;2023-05-23T12:12:39;98870.38;;;32.30;30.67
13765;BME280;6953;48.810;9.204;2023-05-23T12:15:05;98825.97;;;31.47;31.03
13765;BME280;6953;48.810;9.204;2023-05-23T12:17:31;98862.03;;;30.55;33.57
13765;BME280;6953;48.810;9.204;2023-05-23T12:19:57;98667.59;;;28.68;35.17
13765;BME280;6953;48.810;9.204;2023-05-23T12:22:22;98875.84;;;30.67;34.03
13765;BME280;6953;48.810;9.204;2023-05-23T12:24:52;98859.72;;;34.02;28.15
13765;BME280;6953;48.810;9.204;2023-05-23T12:27:17;98869.22;;;36.35;24.42
13765;BME280;6953;48.810;9.204;2023-05-23T12:29:49;98867.19;;;36.19;23.69
13765;BME280;6953;48.810;9.204;2023-05-23T12:32:19;98858.41;;;34.47;25.86
13765;BME280;6953;48.810;9.204;2023-05-23T12:34:44;98854.81;;;32.69;28.14
13765;BME280;6953;48.810;9.204;2023-05-23T12:37:12;98840.63;;;30.79;31.46
13765;BME280;6953;48.810;9.204;2023-05-23T12:39:38;98863.28;;;30.19;33.91
13765;BME280;6953;48.810;9.204;2023-05-23T12:42:07;98823.25;;;29.53;34.91
13765;BME280;6953;48.810;9.204;2023-05-23T12:44:34;98823.50;;;29.16;36.37
13765;BME280;6953;48.810;9.204;2023-05-23T12:47:00;98652.91;;;29.05;34.40
13765;BME280;6953;48.810;9.204;2023-05-23T12:49:25;98852.25;;;31.40;32.09
13765;BME280;6953;48.810;9.204;2023-05-23T12:51:50;98825.09;;;31.14;32.31
13765;BME280;6953;48.810;9.204;2023-05-23T12:54:16;98827.84;;;30.54;33.44
13765;BME280;6953;48.810;9.204;2023-05-23T12:56:41;98647.59;;;29.45;33.47
13765;BME280;6953;48.810;9.204;2023-05-23T12:59:07;98815.94;;;31.41;33.07
13765;BME280;6953;48.810;9.204;2023-05-23T13:01:33;98830.56;;;34.03;27.76
13765;BME280;6953;48.810;9.204;2023-05-23T13:03:59;98829.28;;;33.38;27.87
13765;BME280;6953;48.810;9.204;2023-05-23T13:06:26;98805.63;;;32.71;28.55
13765;BME280;6953;48.810;9.204;2023-05-23T13:08:51;98816.34;;;31.05;31.62
13765;BME280;6953;48.810;9.204;2023-05-23T13:11:19;98810.75;;;30.13;33.55
13765;BME280;6953;48.810;9.204;2023-05-23T13:13:45;98614.09;;;28.58;34.29
13765;BME280;6953;48.810;9.204;2023-05-23T13:16:10;98712.44;;;28.63;36.23
13765;BME280;6953;48.810;9.204;2023-05-23T13:18:36;98809.06;;;28.03;39.28
13765;BME280;6953;48.810;9.204;2023-05-23T13:21:01;98608.66;;;25.91;42.09